createdAt,value
2018-07-02T06:31:10.756Z,46.20
2018-07-02T06:33:39.988Z,45.50
2018-07-02T06:36:08.495Z,45.20
2018-07-02T06:38:37.006Z,45.20
2018-07-02T06:41:05.485Z,44.40
2018-07-02T06:43:33.955Z,44.40
2018-07-02T06:46:02.697Z,44.80
2018-07-02T06:48:31.927Z,45.30
2018-07-02T06:51:00.486Z,45.50
2018-07-02T06:53:28.983Z,45.70
2018-07-02T06:55:57.597Z,47.80
2018-07-02T06:58:26.103Z,46.10
2018-07-02T07:00:54.602Z,46.40
2018-07-02T07:03:23.638Z,45.90
2018-07-02T07:05:52.160Z,45.70
2018-07-02T07:08:20.647Z,46.20
2018-07-02T07:10:49.271Z,45.60
2018-07-02T07:13:17.759Z,44.70
2018-07-02T07:15:46.233Z,45.00
2018-07-02T07:18:14.755Z,44.70
2018-07-02T07:20:43.199Z,44.80
2018-07-02T07:23:12.407Z,43.60
2018-07-02T07:25:41.730Z,44.30
2018-07-02T07:28:10.148Z,43.60
2018-07-02T07:30:38.620Z,41.60
2018-07-02T07:33:07.062Z,43.20
2018-07-02T07:35:35.652Z,42.40
2018-07-02T07:38:04.891Z,41.20
2018-07-02T07:40:35.051Z,42.00
2018-07-02T07:43:03.569Z,41.20
2018-07-02T07:45:32.798Z,42.20
2018-07-02T07:48:01.303Z,41.50
2018-07-02T07:50:30.348Z,41.70
2018-07-02T07:52:58.810Z,41.20
2018-07-02T07:55:27.734Z,39.70
2018-07-02T07:57:56.262Z,40.60
2018-07-02T08:00:24.815Z,40.50
2018-07-02T08:02:53.267Z,40.30
2018-07-02T08:05:21.821Z,41.00
2018-07-02T08:07:51.018Z,44.40
2018-07-02T08:10:19.520Z,38.90
2018-07-02T08:12:47.991Z,38.40
2018-07-02T08:15:17.101Z,38.60
2018-07-02T08:17:46.233Z,39.30
2018-07-02T08:20:15.430Z,38.80
2018-07-02T08:22:44.012Z,37.40
2018-07-02T08:25:13.069Z,37.50
2018-07-02T08:27:41.534Z,37.60
2018-07-02T08:30:11.376Z,37.60
2018-07-02T08:32:39.873Z,36.80
2018-07-02T08:35:08.956Z,37.40
2018-07-02T08:37:37.708Z,36.70
2018-07-02T08:40:06.400Z,37.20
2018-07-02T08:42:34.975Z,36.50
2018-07-02T08:45:03.516Z,36.10
2018-07-02T08:47:31.984Z,36.10
2018-07-02T08:50:00.517Z,37.40
2018-07-02T08:52:29.034Z,36.80
2018-07-02T08:54:57.719Z,37.00
2018-07-02T08:57:26.408Z,36.90
2018-07-02T08:59:55.423Z,36.20
2018-07-02T09:02:24.170Z,36.40
2018-07-02T09:04:52.647Z,36.30
2018-07-02T09:07:21.125Z,36.10
2018-07-02T09:09:49.680Z,36.30
2018-07-02T09:12:19.523Z,36.20
2018-07-02T09:14:48.077Z,36.10
2018-07-02T09:17:16.935Z,36.50
2018-07-02T09:19:45.919Z,36.90
2018-07-02T09:22:14.412Z,36.50
2018-07-02T09:24:43.008Z,36.40
2018-07-02T09:27:12.113Z,37.10
2018-07-02T09:29:40.580Z,36.40
2018-07-02T09:32:09.088Z,35.90
2018-07-02T09:34:38.360Z,35.90
2018-07-02T09:37:08.054Z,35.40
2018-07-02T09:39:37.106Z,35.70
2018-07-02T09:42:07.311Z,35.90
2018-07-02T09:44:38.077Z,35.80
2018-07-02T09:47:07.768Z,35.70
2018-07-02T09:49:37.835Z,36.60
2018-07-02T09:52:07.744Z,35.50
2018-07-02T09:54:37.880Z,35.80
2018-07-02T09:57:06.468Z,35.40
2018-07-02T09:59:35.453Z,34.90
2018-07-02T10:02:03.959Z,35.30
2018-07-02T10:04:32.455Z,35.40
2018-07-02T10:07:00.920Z,34.60
2018-07-02T10:09:29.451Z,34.40
2018-07-02T10:11:57.945Z,33.90
2018-07-02T10:14:26.987Z,34.90
